Time;durP1;ratioP1;P1;durP2;ratioP2;P2;SDS_P1;SDS_P2;PMS_P1;PMS_P2;Temp;Humidity;BMP_temperature;BMP_pressure;BME280_temperature;BME280_humidity;BME280_pressure;Samples;Min_cycle;Max_cycle;Signal;HPM_P1;HPM_P2
2023/12/06 00:01:43;;;;;;;32.40;17.10;;;;;;;1.75;100.00;101085.41;6082057;23;20025;-77
2023/12/06 00:04:10;;;;;;;29.40;17.27;;;;;;;1.78;100.00;101091.78;6110731;23;20011;-78
2023/12/06 00:06:36;;;;;;;29.48;16.38;;;;;;;1.78;100.00;101095.16;6107500;23;20027;-78
2023/12/06 00:09:03;;;;;;;28.38;16.98;;;;;;;1.78;100.00;101089.91;6108107;23;20023;-78
2023/12/06 00:11:30;;;;;;;28.90;17.48;;;;;;;1.78;100.00;101092.53;6110032;23;20014;-78
2023/12/06 00:13:57;;;;;;;30.73;17.63;;;;;;;1.78;100.00;101089.91;6061383;23;20023;-77
2023/12/06 00:16:23;;;;;;;28.52;16.90;;;;;;;1.81;100.00;101098.91;6110591;23;20026;-77
2023/12/06 00:18:51;;;;;;;29.90;17.33;;;;;;;1.76;100.00;101089.53;6062465;23;20030;-77
2023/12/06 00:21:18;;;;;;;28.67;17.02;;;;;;;1.75;100.00;101093.28;6112353;23;20015;-77
2023/12/06 00:23:44;;;;;;;26.42;17.02;;;;;;;1.78;100.00;101099.66;6086056;23;20054;-77
2023/12/06 00:26:11;;;;;;;27.75;17.35;;;;;;;1.76;100.00;101094.78;6085824;23;20057;-77
2023/12/06 00:28:38;;;;;;;29.75;17.33;;;;;;;1.79;100.00;101107.16;6111024;23;20106;-77
2023/12/06 00:31:04;;;;;;;34.90;17.92;;;;;;;1.78;100.00;101104.91;6111547;23;20019;-77
2023/12/06 00:33:31;;;;;;;28.50;17.13;;;;;;;1.78;100.00;101105.66;6110494;23;20015;-77
2023/12/06 00:35:58;;;;;;;32.08;17.48;;;;;;;1.80;100.00;101110.53;6111518;23;20041;-77
2023/12/06 00:38:25;;;;;;;31.45;17.42;;;;;;;1.80;100.00;101110.53;6084237;23;20047;-77
2023/12/06 00:40:53;;;;;;;30.55;16.88;;;;;;;1.78;100.00;101110.16;6104200;23;20022;-77
2023/12/06 00:43:20;;;;;;;30.20;16.65;;;;;;;1.81;100.00;101114.69;6054099;23;21742;-77
2023/12/06 00:45:48;;;;;;;28.77;16.50;;;;;;;1.82;100.00;101114.31;6077674;23;20030;-77
2023/12/06 00:48:14;;;;;;;33.67;18.20;;;;;;;1.85;100.00;101116.19;6102424;23;20074;-77
2023/12/06 00:50:42;;;;;;;30.85;17.13;;;;;;;1.87;100.00;101123.69;6102279;23;20019;-77
2023/12/06 00:53:09;;;;;;;30.33;17.27;;;;;;;1.87;100.00;101127.06;6076722;23;20019;-77
2023/12/06 00:55:36;;;;;;;27.17;16.08;;;;;;;1.89;100.00;101124.09;6102717;23;20019;-77
2023/12/06 00:58:02;;;;;;;29.27;16.70;;;;;;;1.92;100.00;101128.59;6103030;23;20420;-77
2023/12/06 01:00:30;;;;;;;27.70;16.10;;;;;;;1.93;100.00;101132.72;6052952;23;20026;-77
2023/12/06 01:02:57;;;;;;;27.70;16.45;;;;;;;1.93;100.00;101133.47;6102410;23;20058;-77
2023/12/06 01:05:24;;;;;;;27.85;16.50;;;;;;;1.94;100.00;101132.34;6102062;23;20074;-77
2023/12/06 01:07:51;;;;;;;28.38;16.05;;;;;;;1.93;100.00;101130.84;6102563;23;20019;-77
2023/12/06 01:10:18;;;;;;;25.80;15.25;;;;;;;1.90;100.00;101134.22;6102487;23;20103;-77
2023/12/06 01:12:44;;;;;;;28.60;16.45;;;;;;;1.91;100.00;101138.34;6076803;23;20018;-77
2023/12/06 01:15:11;;;;;;;27.02;16.13;;;;;;;1.94;100.00;101148.13;6102441;23;20022;-77
2023/12/06 01:17:39;;;;;;;32.10;17.13;;;;;;;1.96;100.00;101145.88;6076802;23;20083;-77
2023/12/06 01:20:06;;;;;;;27.52;15.93;;;;;;;1.99;100.00;101152.25;6101929;23;20049;-77
2023/12/06 01:22:33;;;;;;;26.30;15.65;;;;;;;1.99;100.00;101152.25;6101871;23;20047;-77
2023/12/06 01:24:59;;;;;;;26.63;15.88;;;;;;;2.03;100.00;101155.63;6077474;23;20810;-77
2023/12/06 01:27:26;;;;;;;29.25;15.35;;;;;;;2.03;100.00;101155.63;6101792;23;20027;-77
2023/12/06 01:29:52;;;;;;;25.63;15.57;;;;;;;2.00;100.00;101165.00;6102368;23;20014;-77
2023/12/06 01:32:34;;;;;;;26.05;15.98;;;;;;;2.04;100.00;101159.00;6103095;23;20483;-77
2023/12/06 01:35:01;;;;;;;28.35;16.35;;;;;;;2.09;100.00;101164.66;6111018;23;20027;-77
2023/12/06 01:37:27;;;;;;;27.33;16.08;;;;;;;2.12;100.00;101168.41;6114966;23;20027;-78
2023/12/06 01:39:54;;;;;;;27.98;15.18;;;;;;;2.14;100.00;101166.16;6107662;23;20038;-78
2023/12/06 01:42:20;;;;;;;27.25;15.27;;;;;;;2.12;100.00;101181.53;6104680;23;20026;-78
2023/12/06 01:44:47;;;;;;;26.35;15.02;;;;;;;2.12;100.00;101168.41;6078999;23;20023;-78
2023/12/06 01:47:16;;;;;;;27.42;15.68;;;;;;;2.15;100.00;101173.69;6103970;23;20075;-78
2023/12/06 01:49:44;;;;;;;28.35;15.23;;;;;;;2.19;100.00;101179.69;6104630;23;20848;-78
2023/12/06 01:52:11;;;;;;;25.00;14.13;;;;;;;2.18;100.00;101180.06;6103841;23;20050;-78
2023/12/06 01:54:38;;;;;;;26.38;15.95;;;;;;;2.18;100.00;101180.06;6076145;23;20422;-77
2023/12/06 01:57:05;;;;;;;25.88;15.95;;;;;;;2.18;100.00;101193.19;6101801;23;20025;-77
2023/12/06 01:59:32;;;;;;;27.02;14.80;;;;;;;2.16;100.00;101192.81;6076010;23;20019;-77
2023/12/06 02:01:59;;;;;;;25.08;15.07;;;;;;;2.16;100.00;101190.19;6102975;23;20079;-77
2023/12/06 02:04:25;;;;;;;25.30;15.45;;;;;;;2.17;100.00;101187.19;6103285;23;20030;-77
2023/12/06 02:06:52;;;;;;;26.83;15.88;;;;;;;2.17;100.00;101194.31;6102349;23;20144;-77
2023/12/06 02:09:19;;;;;;;27.35;15.98;;;;;;;2.17;100.00;101197.69;6075589;23;20019;-77
2023/12/06 02:11:46;;;;;;;22.85;14.48;;;;;;;2.22;100.00;101201.84;6101275;23;20019;-77
2023/12/06 02:14:13;;;;;;;24.13;14.88;;;;;;;2.22;100.00;101197.34;6101424;23;20017;-77
2023/12/06 02:16:41;;;;;;;22.80;15.05;;;;;;;2.23;100.00;101200.72;6075582;23;20078;-77
2023/12/06 02:19:15;;;;;;;25.42;14.93;;;;;;;2.24;100.00;101204.84;6101481;23;20402;-77
2023/12/06 02:21:41;;;;;;;28.25;14.52;;;;;;;2.24;100.00;101199.59;6100668;23;20023;-77
2023/12/06 02:24:11;;;;;;;25.15;14.52;;;;;;;2.25;100.00;101201.09;6101328;23;20022;-77
2023/12/06 02:26:37;;;;;;;25.65;15.63;;;;;;;2.25;100.00;101201.09;6100905;23;20046;-77
2023/12/06 02:29:04;;;;;;;24.85;14.40;;;;;;;2.24;100.00;101202.97;6101975;23;20512;-77
2023/12/06 02:31:30;;;;;;;23.25;14.50;;;;;;;2.21;100.00;101202.97;6099655;23;20015;-77
2023/12/06 02:34:07;;;;;;;25.55;14.57;;;;;;;2.21;100.00;101205.59;6101612;23;20093;-77
2023/12/06 02:36:35;;;;;;;26.08;15.15;;;;;;;2.20;100.00;101210.09;6100367;23;20018;-77
2023/12/06 02:39:04;;;;;;;26.02;15.13;;;;;;;2.21;100.00;101208.97;6101119;23;20019;-77
2023/12/06 02:41:33;;;;;;;25.42;15.48;;;;;;;2.23;100.00;101216.50;6100126;23;20026;-77
2023/12/06 02:44:00;;;;;;;24.05;14.48;;;;;;;2.25;100.00;101217.63;6101184;23;20054;-77
2023/12/06 02:46:27;;;;;;;22.38;14.13;;;;;;;2.28;100.00;101219.50;6100220;23;20014;-77
2023/12/06 02:48:56;;;;;;;21.50;13.25;;;;;;;2.30;100.00;101212.00;6075195;23;20502;-77
2023/12/06 02:51:23;;;;;;;22.20;14.65;;;;;;;2.28;100.00;101211.63;6100284;23;20034;-77
2023/12/06 02:53:51;;;;;;;25.23;15.57;;;;;;;2.29;100.00;101209.75;6101177;23;20019;-77
2023/12/06 02:56:17;;;;;;;23.63;14.02;;;;;;;2.30;100.00;101211.25;6100444;23;20022;-77
2023/12/06 02:58:44;;;;;;;25.30;16.02;;;;;;;2.34;100.00;101217.28;6100699;23;20046;-76
2023/12/06 03:01:11;;;;;;;23.70;14.27;;;;;;;2.38;100.00;101206.78;6101457;23;20019;-77
2023/12/06 03:03:38;;;;;;;23.90;14.55;;;;;;;2.38;100.00;101198.91;6103797;23;20007;-77
2023/12/06 03:06:05;;;;;;;21.63;13.52;;;;;;;2.36;100.00;101207.16;6104295;23;20026;-77
2023/12/06 03:08:32;;;;;;;23.52;14.18;;;;;;;2.37;100.00;101205.28;6104148;23;20038;-77
2023/12/06 03:10:58;;;;;;;23.02;13.63;;;;;;;2.39;100.00;101205.66;6103375;23;20862;-78
2023/12/06 03:13:25;;;;;;;22.17;13.45;;;;;;;2.40;100.00;101210.50;6077289;23;20046;-78
2023/12/06 03:15:51;;;;;;;23.77;14.23;;;;;;;2.37;100.00;101206.03;6104101;23;20015;-77
2023/12/06 03:18:18;;;;;;;21.90;14.30;;;;;;;2.38;100.00;101209.41;6102881;23;20082;-77
2023/12/06 03:20:44;;;;;;;24.73;15.02;;;;;;;2.37;100.00;101211.28;6103017;23;20015;-77
2023/12/06 03:23:11;;;;;;;24.15;14.25;;;;;;;2.39;100.00;101213.53;6077288;23;20454;-77
2023/12/06 03:25:37;;;;;;;20.98;14.27;;;;;;;2.39;100.00;101214.28;6102912;23;20457;-77
2023/12/06 03:28:04;;;;;;;22.52;14.25;;;;;;;2.39;100.00;101210.91;6102902;23;20019;-77
2023/12/06 03:30:30;;;;;;;22.75;13.80;;;;;;;2.39;100.00;101218.81;6102685;23;20026;-77
2023/12/06 03:33:02;;;;;;;;;;;;;;;2.42;100.00;101218.78;6103550;23;20019;-77
2023/12/06 03:35:29;;;;;;;21.48;13.18;;;;;;;2.41;100.00;101221.78;6076367;23;19922;-77
2023/12/06 03:37:55;;;;;;;23.30;13.23;;;;;;;2.40;100.00;101215.03;6076739;23;20038;-76
2023/12/06 03:40:22;;;;;;;20.13;12.88;;;;;;;2.40;100.00;101220.31;6100447;23;20019;-76
2023/12/06 03:42:51;;;;;;;20.23;13.65;;;;;;;2.41;100.00;101213.91;6102036;23;20047;-76
2023/12/06 03:45:17;;;;;;;27.70;15.43;;;;;;;2.43;100.00;101227.41;6101766;23;20021;-76
2023/12/06 03:47:45;;;;;;;24.67;13.60;;;;;;;2.43;100.00;101222.16;6076617;23;20869;-76
2023/12/06 03:50:12;;;;;;;23.23;13.40;;;;;;;2.41;100.00;101222.53;6101820;23;20015;-76
2023/12/06 03:52:39;;;;;;;18.77;13.10;;;;;;;2.42;100.00;101231.16;6102292;23;20453;-76
2023/12/06 03:55:07;;;;;;;20.85;12.82;;;;;;;2.43;100.00;101230.03;6102790;23;20019;-76
2023/12/06 03:57:33;;;;;;;24.65;13.57;;;;;;;2.43;100.00;101230.03;6101230;23;20071;-76
2023/12/06 04:00:00;;;;;;;21.27;13.50;;;;;;;2.44;100.00;101231.56;6102153;23;20484;-76
2023/12/06 04:02:38;;;;;;;21.77;12.85;;;;;;;2.45;100.00;101233.06;6101504;23;20083;-76
2023/12/06 04:05:05;;;;;;;21.23;13.07;;;;;;;2.41;100.00;101233.03;6102666;23;20400;-76
2023/12/06 04:07:31;;;;;;;23.25;13.00;;;;;;;2.41;100.00;101234.91;6076084;23;20051;-76
2023/12/06 04:09:58;;;;;;;25.05;13.95;;;;;;;2.43;100.00;101238.69;6102105;23;20019;-76
2023/12/06 04:12:24;;;;;;;20.20;12.80;;;;;;;2.43;100.00;101238.69;6101257;23;20023;-76
2023/12/06 04:14:53;;;;;;;19.05;13.25;;;;;;;2.47;100.00;101236.06;6102457;23;20018;-76
2023/12/06 04:17:20;;;;;;;21.10;12.82;;;;;;;2.50;100.00;101230.06;6101364;23;20049;-76
2023/12/06 04:19:47;;;;;;;19.58;12.80;;;;;;;2.54;100.00;101242.09;6101995;23;20094;-76
2023/12/06 04:22:13;;;;;;;24.92;14.20;;;;;;;2.55;100.00;101256.00;6101475;23;20034;-76
2023/12/06 04:24:40;;;;;;;20.38;11.48;;;;;;;2.56;100.00;101254.88;6101308;23;20018;-76
2023/12/06 04:27:07;;;;;;;21.23;12.55;;;;;;;2.56;100.00;101252.25;6076176;23;20051;-76
2023/12/06 04:29:33;;;;;;;18.00;11.05;;;;;;;2.57;100.00;101254.50;6101359;23;20019;-76
2023/12/06 04:32:00;;;;;;;18.35;11.68;;;;;;;2.60;100.00;101256.38;6101802;23;20023;-76
2023/12/06 04:34:27;;;;;;;20.98;11.65;;;;;;;2.63;100.00;101254.91;6101172;23;20042;-76
2023/12/06 04:36:54;;;;;;;15.52;11.77;;;;;;;2.64;100.00;101256.41;6101593;23;20019;-76
2023/12/06 04:39:21;;;;;;;18.52;12.40;;;;;;;2.67;100.00;101263.53;6101262;23;20864;-76
2023/12/06 04:41:48;;;;;;;22.23;12.27;;;;;;;2.68;100.00;101263.19;6101294;23;20018;-76
2023/12/06 04:44:15;;;;;;;18.67;12.63;;;;;;;2.68;100.00;101262.41;6101838;23;20015;-76
2023/12/06 04:46:41;;;;;;;15.95;11.18;;;;;;;2.69;100.00;101263.94;6101037;23;20019;-76
2023/12/06 04:49:08;;;;;;;22.40;11.63;;;;;;;2.70;100.00;101257.53;6101834;23;20097;-75
2023/12/06 04:51:34;;;;;;;17.23;11.98;;;;;;;2.72;100.00;101254.53;6101593;23;20023;-76
2023/12/06 04:54:01;;;;;;;19.00;11.80;;;;;;;2.75;100.00;101259.06;6101544;23;20848;-76
2023/12/06 04:56:27;;;;;;;17.55;11.50;;;;;;;2.76;100.00;101263.94;6101730;23;20468;-76
2023/12/06 04:58:54;;;;;;;18.92;11.68;;;;;;;2.78;100.00;101268.84;6102182;23;20019;-76
2023/12/06 05:01:21;;;;;;;18.35;12.85;;;;;;;2.81;100.00;101262.81;6101377;23;20066;-76
2023/12/06 05:03:48;;;;;;;16.23;11.50;;;;;;;2.81;100.00;101271.44;6102649;23;20026;-76
2023/12/06 05:06:15;;;;;;;18.80;12.25;;;;;;;2.82;100.00;101272.94;6102129;23;20146;-76
2023/12/06 05:08:42;;;;;;;20.02;12.18;;;;;;;2.83;100.00;101269.19;6102436;23;20074;-76
2023/12/06 05:11:08;;;;;;;18.23;11.70;;;;;;;2.85;100.00;101287.97;6102729;23;20113;-76
2023/12/06 05:13:35;;;;;;;15.95;11.13;;;;;;;2.89;100.00;101280.84;6101902;23;20015;-76
2023/12/06 05:16:03;;;;;;;18.33;12.20;;;;;;;2.88;100.00;101281.97;6102033;23;20025;-76
2023/12/06 05:18:30;;;;;;;15.93;11.23;;;;;;;2.89;100.00;101283.47;6101507;23;20050;-76
2023/12/06 05:20:56;;;;;;;16.35;10.75;;;;;;;2.91;100.00;101291.00;6102105;23;20062;-76
2023/12/06 05:23:23;;;;;;;17.65;10.55;;;;;;;2.92;100.00;101292.50;6101826;23;20014;-76
2023/12/06 05:25:51;;;;;;;17.00;11.23;;;;;;;2.93;100.00;101286.13;6102639;23;20015;-76
2023/12/06 05:28:17;;;;;;;12.98;10.73;;;;;;;2.93;100.00;101283.50;6101740;23;20019;-76
2023/12/06 05:30:44;;;;;;;16.42;11.15;;;;;;;2.93;100.00;101283.50;6101327;23;20067;-76
2023/12/06 05:33:11;;;;;;;15.68;11.15;;;;;;;2.94;100.00;101293.63;6101771;23;20015;-76
2023/12/06 05:35:37;;;;;;;13.55;10.45;;;;;;;2.96;100.00;101286.13;6102191;23;20025;-76
2023/12/06 05:38:04;;;;;;;18.88;11.15;;;;;;;2.98;100.00;101297.03;6101924;23;20050;-76
2023/12/06 05:40:32;;;;;;;15.60;10.77;;;;;;;3.00;100.00;101294.03;6101392;23;20033;-76
2023/12/06 05:42:59;;;;;;;15.02;10.35;;;;;;;3.00;100.00;101305.31;6102042;23;20019;-76
2023/12/06 05:45:25;;;;;;;13.73;10.40;;;;;;;3.04;100.00;101307.19;6075658;23;20019;-76
2023/12/06 05:47:52;;;;;;;16.40;10.48;;;;;;;3.03;100.00;101311.69;6102355;23;20019;-76
2023/12/06 05:50:19;;;;;;;16.40;10.82;;;;;;;3.04;100.00;101315.09;6076587;23;20027;-76
2023/12/06 05:52:45;;;;;;;20.63;10.70;;;;;;;3.04;100.00;101307.94;6101770;23;20090;-76
2023/12/06 05:55:12;;;;;;;18.52;10.63;;;;;;;3.05;100.00;101308.69;6101896;23;20820;-76
2023/12/06 05:57:39;;;;;;;14.55;10.18;;;;;;;3.06;100.00;101302.31;6102191;23;20014;-76
2023/12/06 06:00:12;;;;;;;14.13;9.80;;;;;;;3.08;100.00;101311.34;6101942;23;20835;-76
2023/12/06 06:02:39;;;;;;;17.25;10.40;;;;;;;3.09;100.00;101302.31;6102033;23;20018;-76
2023/12/06 06:05:08;;;;;;;14.23;9.77;;;;;;;3.09;100.00;101304.19;6076672;23;20030;-77
2023/12/06 06:07:34;;;;;;;12.75;9.82;;;;;;;3.12;100.00;101311.34;6101397;23;20522;-76
2023/12/06 06:10:02;;;;;;;15.50;10.27;;;;;;;3.12;100.00;101312.09;6102148;23;20473;-76
2023/12/06 06:12:31;;;;;;;17.05;10.77;;;;;;;3.15;100.00;101313.97;6101561;23;20026;-76
2023/12/06 06:14:57;;;;;;;14.32;9.63;;;;;;;3.14;100.00;101315.09;6101986;23;20019;-76
2023/12/06 06:17:24;;;;;;;15.93;10.00;;;;;;;3.17;100.00;101321.50;6101504;23;20100;-76
2023/12/06 06:19:51;;;;;;;15.07;10.20;;;;;;;3.17;100.00;101318.88;6102267;23;20051;-76
2023/12/06 06:22:17;;;;;;;15.10;9.45;;;;;;;3.18;100.00;101326.38;6101756;23;20007;-76
2023/12/06 06:24:44;;;;;;;15.00;9.75;;;;;;;3.18;100.00;101339.53;6101695;23;20026;-77
2023/12/06 06:27:11;;;;;;;14.55;9.75;;;;;;;3.16;100.00;101336.53;6101386;23;20014;-76
2023/12/06 06:29:37;;;;;;;14.50;9.77;;;;;;;3.16;100.00;101338.41;6100870;23;20023;-76
2023/12/06 06:32:04;;;;;;;13.57;9.93;;;;;;;3.18;100.00;101344.06;6101789;23;20015;-76
2023/12/06 06:34:30;;;;;;;14.30;9.95;;;;;;;3.17;100.00;101343.31;6101257;23;20074;-77
2023/12/06 06:36:57;;;;;;;16.67;9.57;;;;;;;3.18;100.00;101341.41;6101710;23;20019;-76
2023/12/06 06:39:24;;;;;;;18.25;10.02;;;;;;;3.16;100.00;101341.03;6100806;23;20023;-75
2023/12/06 06:41:51;;;;;;;16.63;9.35;;;;;;;3.18;100.00;101346.69;6100709;23;20512;-77
2023/12/06 06:44:18;;;;;;;13.75;9.48;;;;;;;3.19;100.00;101348.19;6100705;23;20012;-76
2023/12/06 06:46:45;;;;;;;19.02;10.10;;;;;;;3.18;100.00;101349.31;6100707;23;20022;-76
2023/12/06 06:49:14;;;;;;;16.38;9.88;;;;;;;3.18;100.00;101352.69;6100966;23;20031;-76
2023/12/06 06:51:40;;;;;;;12.02;8.73;;;;;;;3.19;100.00;101345.56;6101305;23;20019;-77
2023/12/06 06:54:07;;;;;;;14.40;9.57;;;;;;;3.19;100.00;101350.81;6101578;23;20082;-77
2023/12/06 06:56:34;;;;;;;16.35;9.50;;;;;;;3.21;100.00;101356.44;6100832;23;20014;-77
2023/12/06 06:59:01;;;;;;;16.17;9.10;;;;;;;3.20;100.00;101358.31;6076307;23;20103;-78
2023/12/06 07:01:28;;;;;;;18.00;9.15;;;;;;;3.20;100.00;101360.94;6076586;23;20444;-78
2023/12/06 07:03:55;;;;;;;16.45;9.52;;;;;;;3.21;100.00;101365.09;6102374;23;20019;-77
2023/12/06 07:06:22;;;;;;;13.98;9.32;;;;;;;3.21;100.00;101367.72;6082501;23;20022;-78
2023/12/06 07:08:49;;;;;;;14.10;8.88;;;;;;;3.23;100.00;101369.97;6105938;23;20046;-79
2023/12/06 07:11:16;;;;;;;12.35;8.73;;;;;;;3.24;100.00;101366.97;6101587;23;20524;-77
2023/12/06 07:13:43;;;;;;;14.05;8.43;;;;;;;3.25;100.00;101372.97;6100310;23;20015;-77
2023/12/06 07:16:12;;;;;;;14.65;9.20;;;;;;;3.27;100.00;101379.38;6100744;23;20435;-76
2023/12/06 07:18:39;;;;;;;17.88;9.10;;;;;;;3.28;100.00;101382.78;6101603;23;20023;-76
2023/12/06 07:21:07;;;;;;;16.77;8.77;;;;;;;3.28;100.00;101383.53;6102159;23;20090;-76
2023/12/06 07:23:34;;;;;;;13.52;9.38;;;;;;;3.29;100.00;101384.28;6101782;23;20022;-76
2023/12/06 07:26:00;;;;;;;12.95;8.63;;;;;;;3.30;100.00;101386.53;6101980;23;20090;-77
2023/12/06 07:28:27;;;;;;;16.17;9.80;;;;;;;3.30;100.00;101388.41;6103395;23;20105;-79
2023/12/06 07:30:56;;;;;;;14.05;9.00;;;;;;;3.30;100.00;101394.44;6109539;23;20019;-78
2023/12/06 07:33:22;;;;;;;13.40;9.60;;;;;;;3.31;100.00;101389.91;6105673;23;20011;-77
2023/12/06 07:35:49;;;;;;;17.10;9.23;;;;;;;3.31;100.00;101392.56;6105289;23;20014;-77
2023/12/06 07:38:16;;;;;;;20.70;8.95;;;;;;;3.31;100.00;101406.47;6078265;23;20054;-79
2023/12/06 07:40:44;;;;;;;22.20;9.73;;;;;;;3.33;100.00;101409.47;6108000;23;20015;-78
2023/12/06 07:43:10;;;;;;;15.48;9.73;;;;;;;3.34;100.00;101407.59;6106693;23;20014;-78
2023/12/06 07:45:37;;;;;;;15.80;9.60;;;;;;;3.34;100.00;101415.50;6080064;23;20469;-76
2023/12/06 07:48:04;;;;;;;13.65;9.57;;;;;;;3.34;100.00;101418.13;6103169;23;20019;-75
2023/12/06 07:50:30;;;;;;;14.00;9.60;;;;;;;3.35;100.00;101415.13;6079815;23;20015;-78
2023/12/06 07:52:57;;;;;;;18.20;10.30;;;;;;;3.38;100.00;101418.13;6113990;23;20025;-76
2023/12/06 07:55:23;;;;;;;25.10;10.50;;;;;;;3.38;100.00;101413.63;6118197;23;20075;-78
2023/12/06 07:57:53;;;;;;;17.85;10.13;;;;;;;3.40;100.00;101421.91;6116236;23;20010;-78
2023/12/06 08:00:20;;;;;;;16.10;10.75;;;;;;;3.42;100.00;101416.25;6092040;23;20019;-78
2023/12/06 08:02:46;;;;;;;14.98;9.73;;;;;;;3.42;100.00;101419.66;6116002;23;20011;-78
2023/12/06 08:05:13;;;;;;;17.10;9.68;;;;;;;3.43;100.00;101423.03;6116997;23;20015;-78
2023/12/06 08:07:41;;;;;;;19.88;9.80;;;;;;;3.47;100.00;101414.03;6117244;23;20872;-78
2023/12/06 08:10:10;;;;;;;17.50;9.65;;;;;;;3.50;100.00;101417.78;6116042;23;20011;-79
2023/12/06 08:12:37;;;;;;;19.20;9.52;;;;;;;3.52;100.00;101416.28;6090389;23;20079;-78
2023/12/06 08:15:16;;;;;;;14.35;8.90;;;;;;;3.52;100.00;101429.44;6084139;23;20047;-79
2023/12/06 08:17:55;;;;;;;14.73;9.73;;;;;;;3.53;100.00;101424.94;6084477;23;20491;-79
2023/12/06 08:20:22;;;;;;;14.32;8.85;;;;;;;3.55;100.00;101436.59;6105462;23;20791;-79
2023/12/06 08:22:50;;;;;;;12.05;8.82;;;;;;;3.58;100.00;101449.03;6106379;23;20866;-79
2023/12/06 08:25:16;;;;;;;15.50;9.45;;;;;;;3.54;100.00;101439.59;6104704;23;20075;-79
2023/12/06 08:27:44;;;;;;;13.75;8.95;;;;;;;3.51;100.00;101443.00;6105626;23;20015;-79
2023/12/06 08:30:12;;;;;;;12.63;9.07;;;;;;;3.50;100.00;101449.38;6079108;23;20483;-79
2023/12/06 08:32:40;;;;;;;16.13;9.20;;;;;;;3.49;100.00;101446.00;6078594;23;20019;-79
2023/12/06 08:35:07;;;;;;;12.18;8.23;;;;;;;3.52;100.00;101441.84;6081462;23;20019;-78
2023/12/06 08:37:34;;;;;;;12.95;8.40;;;;;;;3.52;100.00;101444.50;6101695;23;20071;-78
2023/12/06 08:40:00;;;;;;;13.98;9.20;;;;;;;3.52;100.00;101452.38;6102124;23;20021;-78
2023/12/06 08:42:27;;;;;;;14.88;8.63;;;;;;;3.51;100.00;101458.78;6103948;23;20090;-79
2023/12/06 08:44:53;;;;;;;19.70;9.05;;;;;;;3.51;100.00;101464.03;6107729;23;20022;-80
2023/12/06 08:47:23;;;;;;;12.13;8.85;;;;;;;3.53;100.00;101469.69;6103499;23;20464;-77
2023/12/06 08:49:49;;;;;;;17.08;8.73;;;;;;;3.50;100.00;101476.47;6102222;23;20025;-77
2023/12/06 08:52:16;;;;;;;15.27;8.18;;;;;;;3.52;100.00;101471.56;6102981;23;20019;-78
2023/12/06 08:54:43;;;;;;;16.33;8.90;;;;;;;3.55;100.00;101478.72;6102778;23;20827;-78
2023/12/06 08:57:11;;;;;;;12.32;8.30;;;;;;;3.59;100.00;101474.22;6105947;23;20011;-78
2023/12/06 08:59:38;;;;;;;14.88;8.50;;;;;;;3.66;100.00;101482.13;6081170;23;20039;-79
2023/12/06 09:02:06;;;;;;;13.45;8.77;;;;;;;3.74;100.00;101484.75;6082297;23;20071;-79
2023/12/06 09:04:33;;;;;;;19.33;9.38;;;;;;;3.76;100.00;101485.91;6103747;23;20807;-81
2023/12/06 09:07:00;;;;;;;16.08;8.77;;;;;;;3.74;100.00;101490.03;6105643;23;20023;-79
2023/12/06 09:09:26;;;;;;;11.95;8.32;;;;;;;3.70;100.00;101487.38;6104017;23;20094;-80
2023/12/06 09:11:53;;;;;;;14.48;9.52;;;;;;;3.66;100.00;101487.38;6106141;23;20023;-80
2023/12/06 09:14:20;;;;;;;13.43;8.88;;;;;;;3.60;100.00;101482.84;6107167;23;20015;-80
2023/12/06 09:16:47;;;;;;;12.68;8.25;;;;;;;3.58;100.00;101490.41;6105588;23;20023;-78
2023/12/06 09:19:13;;;;;;;13.88;8.63;;;;;;;3.56;100.00;101493.41;6105642;23;20114;-80
2023/12/06 09:21:43;;;;;;;14.65;8.38;;;;;;;3.59;100.00;101491.91;6104295;23;20066;-77
2023/12/06 09:24:10;;;;;;;11.88;8.25;;;;;;;3.61;100.00;101493.00;6106797;23;20014;-81
2023/12/06 09:26:38;;;;;;;16.98;8.65;;;;;;;3.64;100.00;101492.25;6084424;23;20054;-78
2023/12/06 09:29:06;;;;;;;16.20;9.25;;;;;;;3.66;100.00;101487.38;6108641;23;20015;-81
2023/12/06 09:31:33;;;;;;;11.90;8.40;;;;;;;3.68;100.00;101494.91;6082299;23;20019;-82
2023/12/06 09:34:04;;;;;;;13.70;8.52;;;;;;;3.70;100.00;101492.66;6108980;23;20019;-82
2023/12/06 09:36:31;;;;;;;17.00;8.70;;;;;;;3.73;100.00;101493.78;6110475;23;20062;-82
2023/12/06 09:38:59;;;;;;;16.45;9.18;;;;;;;3.74;100.00;101509.22;6108931;23;20059;-82
2023/12/06 09:41:30;;;;;;;11.88;8.55;;;;;;;3.81;100.00;101519.78;6083024;23;20029;-82
2023/12/06 09:43:59;;;;;;;16.73;8.65;;;;;;;3.93;100.00;101519.44;6109583;23;20019;-82
2023/12/06 09:46:26;;;;;;;16.42;8.95;;;;;;;3.96;100.00;101523.94;6109309;23;20082;-81
2023/12/06 09:48:55;;;;;;;15.02;8.90;;;;;;;3.99;100.00;101525.09;6086835;23;20435;-81
2023/12/06 09:51:25;;;;;;;14.88;8.65;;;;;;;4.02;100.00;101530.34;6113298;23;20637;-79
2023/12/06 09:53:51;;;;;;;10.38;7.88;;;;;;;4.09;100.00;101523.56;6109717;23;20042;-80
2023/12/06 09:56:24;;;;;;;;;;;;;;;4.11;100.00;101521.31;6081696;23;20023;-79
2023/12/06 09:58:51;;;;;;;14.68;8.15;;;;;;;4.13;100.00;101521.69;6081222;23;19929;-77
2023/12/06 10:01:17;;;;;;;10.90;7.82;;;;;;;4.13;100.00;101527.72;6106729;23;20071;-78
2023/12/06 10:03:46;;;;;;;12.15;7.50;;;;;;;4.16;100.00;101526.22;6080340;23;20018;-78
2023/12/06 10:06:14;;;;;;;12.85;7.85;;;;;;;4.16;100.00;101526.97;6103966;23;20018;-78
2023/12/06 10:08:41;;;;;;;13.80;8.48;;;;;;;4.19;100.00;101538.63;6079898;23;20106;-78
2023/12/06 10:11:13;;;;;;;12.05;8.68;;;;;;;4.21;100.00;101531.88;6076291;23;20067;-77
2023/12/06 10:13:41;;;;;;;13.80;7.47;;;;;;;4.22;100.00;101530.72;6103687;23;20068;-79
2023/12/06 10:16:19;;;;;;;18.98;8.02;;;;;;;4.26;100.00;101528.09;6080994;23;20047;-81
2023/12/06 10:18:48;;;;;;;11.63;8.07;;;;;;;4.28;100.00;101531.88;6086917;23;20014;-81
2023/12/06 10:21:20;;;;;;;11.10;7.72;;;;;;;4.31;100.00;101525.09;6112417;23;20015;-81
2023/12/06 10:24:00;;;;;;;11.45;7.65;;;;;;;4.32;100.00;101527.34;6113326;23;20015;-81
2023/12/06 10:26:28;;;;;;;14.15;7.18;;;;;;;4.35;100.00;101528.47;6062881;23;20049;-81
2023/12/06 10:28:58;;;;;;;11.52;7.65;;;;;;;4.41;100.00;101528.84;6112752;23;20045;-81
2023/12/06 10:31:26;;;;;;;13.48;6.97;;;;;;;4.47;100.00;101536.00;6085121;23;20015;-81
2023/12/06 10:33:56;;;;;;;11.40;7.22;;;;;;;4.47;100.00;101533.34;6086185;23;20026;-81
2023/12/06 10:36:27;;;;;;;11.60;7.63;;;;;;;4.54;100.00;101538.63;6085237;23;20059;-81
2023/12/06 10:38:57;;;;;;;10.75;7.22;;;;;;;4.62;100.00;101534.09;6086321;23;20243;-81
2023/12/06 10:41:26;;;;;;;11.05;7.22;;;;;;;4.71;100.00;101525.81;6086015;23;20015;-81
2023/12/06 10:43:55;;;;;;;13.73;7.82;;;;;;;4.77;100.00;101522.41;6114964;23;20022;-81
2023/12/06 10:46:24;;;;;;;9.60;7.35;;;;;;;4.82;100.00;101521.25;6088270;23;20029;-81
2023/12/06 10:48:55;;;;;;;10.48;7.72;;;;;;;4.82;99.98;101524.63;6113679;23;20015;-81
2023/12/06 10:51:25;;;;;;;12.48;7.45;;;;;;;4.85;99.98;101529.16;6063997;23;20030;-81
2023/12/06 10:53:54;;;;;;;14.80;8.20;;;;;;;4.90;99.63;101530.66;6116332;23;20015;-81
2023/12/06 10:56:21;;;;;;;13.00;8.10;;;;;;;4.90;98.74;101526.13;6115281;23;20086;-81
2023/12/06 10:58:48;;;;;;;10.82;7.65;;;;;;;4.92;98.49;101525.75;6066116;23;20319;-81
2023/12/06 11:01:16;;;;;;;12.65;8.38;;;;;;;4.93;98.72;101529.91;6091108;23;20019;-81
2023/12/06 11:03:43;;;;;;;12.52;8.20;;;;;;;4.94;98.72;101531.41;6116964;23;20086;-81
2023/12/06 11:06:33;;;;;;;12.30;7.68;;;;;;;4.95;99.21;101531.03;6116757;23;19999;-81
2023/12/06 11:09:08;;;;;;;13.27;7.60;;;;;;;4.99;99.37;101533.66;6081718;23;20078;-81
2023/12/06 11:11:47;;;;;;;11.18;7.57;;;;;;;4.98;98.64;101532.91;6097175;23;20030;-81
2023/12/06 11:14:52;;;;;;;16.30;8.80;;;;;;;4.99;98.96;101531.75;6099264;23;20022;-81
2023/12/06 11:17:41;;;;;;;12.30;7.90;;;;;;;4.98;99.37;101526.88;6121752;23;20015;-81